Time;durP1;ratioP1;P1;durP2;ratioP2;P2;SDS_P1;SDS_P2;PMS_P1;PMS_P2;Temp;Humidity;BMP_temperature;BMP_pressure;BME280_temperature;BME280_humidity;BME280_pressure;Samples;Min_cycle;Max_cycle;Signal;HPM_P1;HPM_P2
2022/01/25 00:08:40;;;;;;;27.50;13.40;;;;;;;;;;5093337;28;20040;-70
2022/01/25 00:30:00;;;;;;;28.20;14.10;;;;;;;;;;5081671;28;20050;-69
2022/01/25 00:32:26;;;;;;;26.35;14.25;;;;;;;;;;5099176;28;20048;-70
2022/01/25 00:34:55;;;;;;;26.98;14.82;;;;;;;;;;5092763;28;20134;-70
2022/01/25 00:37:21;;;;;;;25.48;14.27;;;;;;;;;;5091595;28;20040;-69
2022/01/25 00:39:47;;;;;;;29.88;15.45;;;;;;;;;;5099974;28;20439;-70
2022/01/25 00:42:12;;;;;;;27.92;15.75;;;;;;;;;;5111996;28;20104;-71
2022/01/25 00:44:40;;;;;;;28.23;15.23;;;;;;;;;;5112251;28;20057;-71
2022/01/25 00:47:07;;;;;;;26.58;14.77;;;;;;;;;;5112149;28;20047;-70
2022/01/25 00:49:37;;;;;;;30.27;14.85;;;;;;;;;;5112060;28;20044;-70
2022/01/25 00:52:18;;;;;;;26.08;15.00;;;;;;;;;;5112983;28;20050;-69
2022/01/25 00:54:45;;;;;;;;;;;;;;;;;;5110477;28;20436;-69
2022/01/25 00:57:10;;;;;;;31.98;15.77;;;;;;;;;;5112512;28;19931;-69
2022/01/25 00:59:36;;;;;;;29.60;15.32;;;;;;;;;;5111562;28;20063;-70
2022/01/25 01:02:10;;;;;;;29.85;16.83;;;;;;;;;;5111924;28;20392;-71
2022/01/25 01:04:36;;;;;;;27.80;15.50;;;;;;;;;;5111553;28;20062;-71
2022/01/25 01:07:06;;;;;;;31.15;16.35;;;;;;;;;;5111314;28;20036;-70
2022/01/25 01:09:35;;;;;;;33.95;17.05;;;;;;;;;;5109920;28;20054;-70
2022/01/25 01:12:07;;;;;;;31.05;16.33;;;;;;;;;;5110033;28;20055;-69
2022/01/25 01:17:36;;;;;;;31.85;15.93;;;;;;;;;;5110875;28;20047;-71
2022/01/25 01:44:50;;;;;;;;;;;;;;;;;;5112578;28;20028;-70
2022/01/25 01:47:24;;;;;;;32.10;16.02;;;;;;;;;;5110944;28;19915;-70
2022/01/25 01:49:50;;;;;;;34.13;16.65;;;;;;;;;;5111162;28;20074;-71
2022/01/25 01:52:16;;;;;;;43.28;18.45;;;;;;;;;;5110942;28;20051;-70
2022/01/25 01:54:42;;;;;;;36.65;18.35;;;;;;;;;;5111344;28;20430;-70
2022/01/25 01:57:09;;;;;;;45.33;18.27;;;;;;;;;;5110517;28;20069;-70
2022/01/25 01:59:37;;;;;;;36.72;19.52;;;;;;;;;;5110103;28;20047;-70
2022/01/25 02:02:03;;;;;;;37.30;18.13;;;;;;;;;;5110370;28;20055;-70
2022/01/25 02:04:29;;;;;;;40.78;20.33;;;;;;;;;;5110239;28;20483;-70
2022/01/25 02:06:55;;;;;;;38.78;19.27;;;;;;;;;;5110627;28;20138;-70
2022/01/25 02:09:21;;;;;;;43.20;20.08;;;;;;;;;;5109928;28;20130;-70
2022/01/25 02:11:47;;;;;;;38.13;20.35;;;;;;;;;;5110408;28;20164;-70
2022/01/25 02:14:15;;;;;;;41.40;19.60;;;;;;;;;;5110412;28;20039;-70
2022/01/25 02:22:26;;;;;;;36.90;17.63;;;;;;;;;;5109079;28;20032;-70
2022/01/25 02:24:52;;;;;;;34.47;18.25;;;;;;;;;;5106797;28;20048;-70
2022/01/25 02:27:18;;;;;;;31.75;17.35;;;;;;;;;;5110288;28;20039;-69
2022/01/25 02:29:44;;;;;;;32.40;17.48;;;;;;;;;;5109067;28;20128;-70
2022/01/25 02:32:11;;;;;;;33.08;16.77;;;;;;;;;;5109470;28;20069;-70
2022/01/25 02:34:37;;;;;;;35.50;17.63;;;;;;;;;;5110229;28;20055;-70
2022/01/25 02:37:06;;;;;;;32.22;17.77;;;;;;;;;;5109889;28;20047;-70
2022/01/25 02:39:34;;;;;;;33.00;17.75;;;;;;;;;;5109589;28;20051;-70
2022/01/25 02:42:00;;;;;;;33.47;17.77;;;;;;;;;;5109870;28;20424;-70
2022/01/25 02:44:28;;;;;;;33.63;17.77;;;;;;;;;;5110067;28;20047;-71
2022/01/25 02:49:33;;;;;;;33.97;17.25;;;;;;;;;;5109869;28;20484;-69
2022/01/25 02:52:00;;;;;;;36.13;18.38;;;;;;;;;;5109395;28;20055;-71
2022/01/25 02:54:27;;;;;;;36.00;18.70;;;;;;;;;;5109649;28;20051;-70
2022/01/25 02:56:53;;;;;;;39.70;19.33;;;;;;;;;;5110230;28;20035;-71
2022/01/25 02:59:20;;;;;;;37.58;19.35;;;;;;;;;;5109448;28;20043;-71
2022/01/25 03:01:48;;;;;;;39.28;19.95;;;;;;;;;;5110300;28;20034;-71
2022/01/25 03:04:17;;;;;;;41.83;21.00;;;;;;;;;;5091135;28;20050;-71
2022/01/25 03:06:43;;;;;;;41.90;20.75;;;;;;;;;;5109849;28;20047;-70
2022/01/25 03:09:10;;;;;;;43.88;22.27;;;;;;;;;;5109654;28;20055;-71
2022/01/25 03:11:36;;;;;;;41.38;20.40;;;;;;;;;;5109548;28;20035;-69
2022/01/25 03:14:07;;;;;;;38.17;20.52;;;;;;;;;;5110132;28;20027;-70
2022/01/25 03:16:47;;;;;;;;;;;;;;;;;;5110853;28;20471;-70
2022/01/25 03:21:59;;;;;;;35.22;17.70;;;;;;;;;;5109992;28;20035;-70
2022/01/25 03:24:25;;;;;;;33.47;18.52;;;;;;;;;;5109227;28;20043;-69
2022/01/25 03:26:52;;;;;;;32.72;17.73;;;;;;;;;;5110148;28;20031;-70
2022/01/25 03:29:18;;;;;;;41.15;20.25;;;;;;;;;;5108890;28;20047;-70
2022/01/25 03:31:44;;;;;;;39.28;19.23;;;;;;;;;;5109080;28;20485;-70
2022/01/25 03:34:10;;;;;;;37.60;19.25;;;;;;;;;;5109665;28;20051;-71
2022/01/25 03:36:39;;;;;;;44.42;19.75;;;;;;;;;;5109350;28;20463;-70
2022/01/25 03:39:06;;;;;;;39.58;19.42;;;;;;;;;;5109523;28;20048;-70
2022/01/25 03:41:34;;;;;;;36.17;19.25;;;;;;;;;;5109787;28;20404;-70
2022/01/25 03:44:01;;;;;;;38.03;18.05;;;;;;;;;;5113286;28;20051;-70
2022/01/25 03:51:42;;;;;;;38.92;18.17;;;;;;;;;;5113932;28;20036;-70
2022/01/25 03:54:08;;;;;;;32.97;18.20;;;;;;;;;;5113006;28;20078;-70
2022/01/25 03:56:35;;;;;;;39.38;18.67;;;;;;;;;;5113115;28;20042;-70
2022/01/25 03:59:01;;;;;;;37.63;18.60;;;;;;;;;;5113138;28;20491;-70
2022/01/25 04:01:27;;;;;;;36.33;19.80;;;;;;;;;;5112668;28;20058;-70
2022/01/25 04:03:59;;;;;;;40.58;18.58;;;;;;;;;;5094583;28;20048;-70
2022/01/25 04:06:29;;;;;;;35.75;17.67;;;;;;;;;;5112622;28;20481;-70
2022/01/25 04:08:56;;;;;;;32.33;17.30;;;;;;;;;;5113633;28;20043;-70
2022/01/25 04:11:22;;;;;;;36.05;19.10;;;;;;;;;;5112102;28;20047;-70
2022/01/25 04:13:51;;;;;;;38.05;19.13;;;;;;;;;;5112518;28;20051;-71
2022/01/25 04:16:22;;;;;;;37.60;19.00;;;;;;;;;;5111268;28;20044;-70
2022/01/25 04:24:43;;;;;;;35.08;18.85;;;;;;;;;;5067270;28;20457;-69
2022/01/25 04:27:16;;;;;;;37.95;18.92;;;;;;;;;;5113470;28;20031;-71
2022/01/25 04:29:42;;;;;;;38.83;19.60;;;;;;;;;;5112293;28;20082;-71
2022/01/25 04:32:10;;;;;;;43.35;20.70;;;;;;;;;;5112291;28;20063;-71
2022/01/25 04:34:43;;;;;;;38.58;19.23;;;;;;;;;;5112979;28;20050;-70
2022/01/25 04:50:58;;;;;;;34.83;17.77;;;;;;;;;;5113730;28;20055;-71
2022/01/25 04:53:38;;;;;;;37.22;19.27;;;;;;;;;;5111607;28;20051;-71
2022/01/25 04:56:16;;;;;;;42.75;18.73;;;;;;;;;;5111386;28;20044;-71
2022/01/25 04:58:52;;;;;;;39.53;18.80;;;;;;;;;;5111043;28;20036;-71
2022/01/25 05:01:18;;;;;;;37.25;17.52;;;;;;;;;;5105572;28;20028;-69
2022/01/25 05:03:56;;;;;;;38.13;18.67;;;;;;;;;;5107371;28;20384;-71
2022/01/25 05:06:22;;;;;;;43.75;20.20;;;;;;;;;;5106581;28;20043;-69
2022/01/25 05:08:53;;;;;;;39.15;18.50;;;;;;;;;;5107895;28;20044;-70
2022/01/25 05:11:31;;;;;;;35.85;18.40;;;;;;;;;;5092300;28;20039;-69
2022/01/25 05:16:37;;;;;;;39.17;19.63;;;;;;;;;;5107657;28;20043;-69
2022/01/25 05:24:21;;;;;;;45.03;19.48;;;;;;;;;;5109140;28;20027;-71
2022/01/25 05:26:47;;;;;;;40.15;19.45;;;;;;;;;;5111737;28;20127;-70
2022/01/25 05:29:13;;;;;;;42.67;21.02;;;;;;;;;;5111180;28;20132;-71
2022/01/25 05:31:39;;;;;;;44.05;20.75;;;;;;;;;;5094157;28;20054;-69
2022/01/25 05:34:07;;;;;;;41.60;20.55;;;;;;;;;;5092317;28;20135;-69
2022/01/25 05:36:33;;;;;;;40.60;20.58;;;;;;;;;;5108603;28;20051;-71
2022/01/25 05:39:04;;;;;;;39.45;19.73;;;;;;;;;;5110351;28;20044;-71
2022/01/25 05:41:32;;;;;;;37.20;19.98;;;;;;;;;;5110450;28;20385;-70
2022/01/25 05:46:42;;;;;;;47.53;20.48;;;;;;;;;;5114203;28;20039;-71
2022/01/25 05:49:11;;;;;;;39.40;19.77;;;;;;;;;;5110721;28;20055;-70
2022/01/25 05:51:37;;;;;;;41.30;18.92;;;;;;;;;;5110200;28;20043;-69
2022/01/25 05:54:03;;;;;;;41.83;19.35;;;;;;;;;;5106935;28;20040;-70
2022/01/25 05:56:29;;;;;;;38.72;19.48;;;;;;;;;;5109708;28;20122;-71
2022/01/25 05:58:55;;;;;;;42.20;19.95;;;;;;;;;;5109218;28;20458;-70
2022/01/25 06:01:21;;;;;;;40.80;19.17;;;;;;;;;;5109310;28;20090;-71
2022/01/25 06:03:47;;;;;;;38.28;19.27;;;;;;;;;;5109708;28;20115;-71
2022/01/25 06:06:13;;;;;;;40.45;19.83;;;;;;;;;;5110318;28;20154;-71
2022/01/25 06:08:39;;;;;;;46.15;21.20;;;;;;;;;;5111499;28;20036;-73
2022/01/25 06:11:07;;;;;;;38.88;19.08;;;;;;;;;;5087969;28;20039;-69
2022/01/25 06:13:32;;;;;;;40.17;19.00;;;;;;;;;;5089599;28;20413;-70
2022/01/25 06:15:58;;;;;;;50.47;23.85;;;;;;;;;;5092240;28;20071;-69
2022/01/25 06:18:24;;;;;;;45.90;21.20;;;;;;;;;;5099650;28;20123;-70
2022/01/25 06:20:50;;;;;;;41.40;19.63;;;;;;;;;;5087303;28;20047;-69
2022/01/25 06:23:19;;;;;;;38.13;18.42;;;;;;;;;;5090945;28;20405;-69
2022/01/25 06:25:45;;;;;;;45.25;21.25;;;;;;;;;;5099775;28;20063;-77
2022/01/25 06:28:13;;;;;;;42.22;20.00;;;;;;;;;;5088596;28;20446;-74
2022/01/25 06:30:39;;;;;;;41.13;20.05;;;;;;;;;;5090240;27;20036;-73
2022/01/25 06:33:08;;;;;;;42.70;20.50;;;;;;;;;;5096449;27;20039;-72
2022/01/25 06:35:34;;;;;;;45.05;20.60;;;;;;;;;;5091873;27;20040;-73
2022/01/25 06:38:01;;;;;;;43.90;20.77;;;;;;;;;;5092747;27;20028;-74
2022/01/25 06:40:27;;;;;;;50.10;21.77;;;;;;;;;;5101351;27;20023;-75
2022/01/25 06:42:53;;;;;;;44.47;20.52;;;;;;;;;;5100098;28;20020;-73
2022/01/25 06:45:22;;;;;;;42.05;20.88;;;;;;;;;;5101125;28;20055;-74
2022/01/25 06:47:49;;;;;;;42.00;20.20;;;;;;;;;;5086724;28;20502;-73
2022/01/25 06:50:17;;;;;;;49.72;22.08;;;;;;;;;;5093052;28;20044;-72
2022/01/25 06:52:44;;;;;;;44.85;21.17;;;;;;;;;;5105192;28;20055;-71
2022/01/25 06:55:15;;;;;;;42.13;20.92;;;;;;;;;;5090064;28;20044;-71
2022/01/25 06:57:41;;;;;;;;;;;;;;;;;;5097761;28;20515;-71
2022/01/25 07:00:13;;;;;;;39.95;17.70;;;;;;;;;;5107345;28;19958;-71
2022/01/25 07:02:39;;;;;;;48.00;19.58;;;;;;;;;;5101961;28;20020;-73
2022/01/25 07:05:08;;;;;;;41.30;19.50;;;;;;;;;;5100338;28;20031;-72
2022/01/25 07:07:35;;;;;;;42.25;21.23;;;;;;;;;;5100612;28;20027;-72
2022/01/25 07:10:03;;;;;;;43.78;21.13;;;;;;;;;;5102071;28;20042;-72
2022/01/25 07:12:29;;;;;;;41.33;21.83;;;;;;;;;;5106946;28;20040;-72
2022/01/25 07:14:55;;;;;;;42.53;20.98;;;;;;;;;;5106522;28;20449;-72
2022/01/25 07:17:25;;;;;;;41.53;21.55;;;;;;;;;;5073590;28;20401;-72
2022/01/25 07:19:51;;;;;;;46.97;21.15;;;;;;;;;;5090164;27;20087;-72
2022/01/25 07:22:17;;;;;;;40.25;20.55;;;;;;;;;;5094186;28;20075;-71
2022/01/25 07:24:43;;;;;;;34.28;19.35;;;;;;;;;;5104917;28;20515;-72
2022/01/25 07:27:09;;;;;;;34.80;20.58;;;;;;;;;;5108393;28;20036;-71
2022/01/25 07:29:36;;;;;;;38.10;19.95;;;;;;;;;;5102621;27;20473;-75
2022/01/25 07:32:02;;;;;;;35.78;19.23;;;;;;;;;;5089035;28;20054;-74
2022/01/25 07:34:29;;;;;;;35.13;19.83;;;;;;;;;;5089080;28;20058;-71
2022/01/25 07:36:55;;;;;;;33.85;18.30;;;;;;;;;;5097048;28;20043;-71
2022/01/25 07:39:21;;;;;;;33.13;18.48;;;;;;;;;;5105215;28;20036;-70
2022/01/25 07:41:47;;;;;;;32.20;17.60;;;;;;;;;;5108682;28;20043;-72
2022/01/25 07:44:13;;;;;;;32.65;17.85;;;;;;;;;;5106806;28;20040;-72
2022/01/25 07:46:39;;;;;;;33.05;16.90;;;;;;;;;;5105847;28;20043;-71
2022/01/25 07:49:06;;;;;;;31.63;16.23;;;;;;;;;;5088885;28;20047;-72
2022/01/25 07:51:35;;;;;;;32.05;18.83;;;;;;;;;;5093065;27;20043;-73
2022/01/25 07:54:01;;;;;;;26.42;16.15;;;;;;;;;;5117308;27;20031;-70
2022/01/25 07:56:27;;;;;;;28.77;15.60;;;;;;;;;;5112444;27;20044;-72
2022/01/25 07:58:53;;;;;;;35.30;16.65;;;;;;;;;;5100254;28;20067;-72
2022/01/25 08:01:20;;;;;;;26.30;15.27;;;;;;;;;;5087571;28;20062;-73
2022/01/25 08:03:46;;;;;;;26.98;14.57;;;;;;;;;;5106293;28;20035;-75
2022/01/25 08:06:13;;;;;;;25.15;14.93;;;;;;;;;;5098353;28;20043;-77
2022/01/25 08:08:41;;;;;;;24.85;15.70;;;;;;;;;;5117015;27;20039;-69
2022/01/25 08:11:07;;;;;;;24.77;13.93;;;;;;;;;;5100948;28;20043;-74
2022/01/25 08:13:36;;;;;;;22.90;13.52;;;;;;;;;;5087332;28;20051;-71
2022/01/25 08:16:02;;;;;;;21.95;12.25;;;;;;;;;;5106405;28;20039;-71
2022/01/25 08:18:28;;;;;;;22.50;14.10;;;;;;;;;;5108103;28;20153;-72
2022/01/25 08:20:54;;;;;;;23.00;12.73;;;;;;;;;;5098753;28;20054;-72
2022/01/25 08:23:20;;;;;;;25.75;14.07;;;;;;;;;;5102658;27;20537;-70
2022/01/25 08:25:46;;;;;;;25.02;12.57;;;;;;;;;;5102541;27;20043;-71
2022/01/25 08:28:12;;;;;;;26.13;14.45;;;;;;;;;;5076489;28;20048;-72
2022/01/25 08:30:38;;;;;;;22.60;13.60;;;;;;;;;;5086706;28;20051;-71
2022/01/25 08:33:04;;;;;;;24.40;14.15;;;;;;;;;;5117444;27;20039;-70
2022/01/25 08:35:30;;;;;;;25.10;13.52;;;;;;;;;;5101385;28;20390;-71
2022/01/25 08:37:56;;;;;;;25.52;14.00;;;;;;;;;;5107304;28;20040;-71
2022/01/25 08:40:22;;;;;;;25.50;14.52;;;;;;;;;;5102798;28;20504;-71
2022/01/25 08:42:48;;;;;;;26.10;15.13;;;;;;;;;;5106115;28;20034;-70
2022/01/25 08:45:14;;;;;;;30.70;14.95;;;;;;;;;;5108057;28;20059;-70
2022/01/25 08:47:40;;;;;;;29.27;15.70;;;;;;;;;;5100820;28;20051;-73
2022/01/25 08:50:09;;;;;;;29.63;15.75;;;;;;;;;;5106799;28;20043;-73
2022/01/25 08:52:36;;;;;;;29.30;16.05;;;;;;;;;;5101964;28;20240;-72
2022/01/25 08:55:03;;;;;;;30.25;16.15;;;;;;;;;;5068990;28;20051;-72
2022/01/25 08:57:29;;;;;;;31.90;17.48;;;;;;;;;;5095302;28;20433;-72
2022/01/25 08:59:55;;;;;;;28.33;15.75;;;;;;;;;;5067359;28;20123;-73
2022/01/25 09:02:21;;;;;;;28.05;15.25;;;;;;;;;;5088860;28;20077;-74
2022/01/25 09:04:47;;;;;;;29.50;15.50;;;;;;;;;;5111583;27;20043;-73
2022/01/25 09:07:12;;;;;;;28.33;15.25;;;;;;;;;;5110002;27;20089;-74
2022/01/25 09:09:40;;;;;;;28.95;15.65;;;;;;;;;;5112144;27;20122;-74
2022/01/25 09:12:07;;;;;;;30.63;15.70;;;;;;;;;;5099183;28;20477;-71
2022/01/25 09:14:33;;;;;;;31.40;16.77;;;;;;;;;;5118890;27;20036;-71
2022/01/25 09:16:59;;;;;;;30.45;17.25;;;;;;;;;;5102453;28;20092;-70
2022/01/25 09:19:27;;;;;;;28.73;16.77;;;;;;;;;;5087725;28;20164;-70
2022/01/25 09:21:53;;;;;;;26.33;15.93;;;;;;;;;;5110108;27;20154;-73
2022/01/25 09:24:19;;;;;;;26.20;15.73;;;;;;;;;;5109453;27;20051;-70
2022/01/25 09:26:45;;;;;;;26.20;15.68;;;;;;;;;;5115897;27;20110;-71
2022/01/25 09:29:11;;;;;;;25.00;14.90;;;;;;;;;;5108396;27;20096;-71
2022/01/25 09:31:40;;;;;;;24.38;14.30;;;;;;;;;;5114636;27;20118;-71
2022/01/25 09:34:06;;;;;;;26.70;15.20;;;;;;;;;;5091850;28;20044;-71
2022/01/25 09:36:33;;;;;;;28.00;15.18;;;;;;;;;;5080011;28;20047;-71
2022/01/25 09:38:59;;;;;;;22.33;13.60;;;;;;;;;;5095655;28;20412;-71
2022/01/25 09:41:25;;;;;;;25.33;15.38;;;;;;;;;;5108455;27;20103;-72
2022/01/25 09:43:51;;;;;;;29.38;16.60;;;;;;;;;;5106295;28;20056;-72
2022/01/25 09:46:17;;;;;;;29.67;16.00;;;;;;;;;;5106665;28;20023;-72
2022/01/25 09:48:43;;;;;;;32.65;16.65;;;;;;;;;;5100184;27;20031;-72
2022/01/25 09:51:10;;;;;;;30.48;16.55;;;;;;;;;;5110468;27;20043;-75
2022/01/25 09:53:40;;;;;;;28.17;16.40;;;;;;;;;;5094269;28;20396;-72
2022/01/25 09:56:07;;;;;;;28.30;16.80;;;;;;;;;;5102446;28;20473;-71
2022/01/25 09:58:33;;;;;;;31.17;16.13;;;;;;;;;;5100893;28;20049;-73
2022/01/25 10:01:00;;;;;;;31.65;16.38;;;;;;;;;;5105661;27;20578;-72
2022/01/25 10:03:34;;;;;;;32.13;17.98;;;;;;;;;;5112270;27;20042;-72
2022/01/25 10:06:01;;;;;;;34.95;16.65;;;;;;;;;;5094195;27;20051;-75
2022/01/25 10:08:31;;;;;;;33.47;17.45;;;;;;;;;;5122270;27;20035;-72
2022/01/25 10:11:00;;;;;;;32.65;17.17;;;;;;;;;;5100810;27;20047;-73
2022/01/25 10:13:33;;;;;;;29.23;16.08;;;;;;;;;;5104875;27;20044;-71
2022/01/25 10:16:10;;;;;;;28.55;16.42;;;;;;;;;;5105874;27;20594;-71
2022/01/25 10:18:39;;;;;;;32.85;17.27;;;;;;;;;;5097133;28;20047;-72
2022/01/25 10:21:17;;;;;;;29.33;16.23;;;;;;;;;;5098873;28;20047;-71
2022/01/25 10:24:01;;;;;;;30.77;16.60;;;;;;;;;;5092701;28;20146;-71
2022/01/25 10:26:41;;;;;;;31.83;17.45;;;;;;;;;;5090880;28;20035;-71
2022/01/25 10:29:09;;;;;;;26.50;15.73;;;;;;;;;;5104554;28;20039;-71
2022/01/25 10:31:41;;;;;;;31.58;17.50;;;;;;;;;;5095806;28;20382;-73
2022/01/25 10:34:09;;;;;;;29.20;15.93;;;;;;;;;;5111920;27;20039;-73
2022/01/25 10:36:47;;;;;;;33.58;17.85;;;;;;;;;;5097714;27;20027;-72
2022/01/25 10:39:21;;;;;;;28.88;16.60;;;;;;;;;;5107081;27;20036;-72
2022/01/25 10:41:46;;;;;;;32.40;16.25;;;;;;;;;;5101497;28;20043;-72
2022/01/25 10:44:12;;;;;;;32.88;17.98;;;;;;;;;;5103635;28;20031;-72
2022/01/25 10:46:39;;;;;;;32.38;17.80;;;;;;;;;;5106739;28;20122;-72
2022/01/25 10:49:11;;;;;;;32.58;17.52;;;;;;;;;;5107626;28;20039;-73
2022/01/25 10:51:45;;;;;;;34.55;18.95;;;;;;;;;;5108389;28;20488;-72
2022/01/25 10:54:21;;;;;;;32.22;16.60;;;;;;;;;;5090391;28;20032;-73
2022/01/25 10:56:58;;;;;;;31.20;17.35;;;;;;;;;;5097681;28;20035;-71
2022/01/25 10:59:32;;;;;;;38.60;18.55;;;;;;;;;;5105308;28;20055;-72
2022/01/25 11:02:05;;;;;;;34.50;18.42;;;;;;;;;;5105987;28;20038;-72
2022/01/25 11:04:34;;;;;;;32.30;17.17;;;;;;;;;;5106872;28;20027;-72
2022/01/25 11:07:01;;;;;;;33.47;17.80;;;;;;;;;;5099064;28;20036;-72
2022/01/25 11:09:35;;;;;;;33.33;17.70;;;;;;;;;;5076056;28;20413;-71
2022/01/25 11:12:05;;;;;;;35.75;18.67;;;;;;;;;;5105192;28;20536;-72
2022/01/25 11:14:50;;;;;;;32.22;16.50;;;;;;;;;;5098483;28;20054;-73
2022/01/25 11:17:27;;;;;;;34.15;17.92;;;;;;;;;;5081699;28;20374;-73
2022/01/25 11:19:55;;;;;;;37.17;19.63;;;;;;;;;;5101671;28;20047;-72
2022/01/25 11:22:21;;;;;;;35.90;18.23;;;;;;;;;;5101697;28;20031;-72
2022/01/25 11:24:53;;;;;;;35.55;18.50;;;;;;;;;;5106155;28;20030;-72
2022/01/25 11:27:21;;;;;;;34.13;17.17;;;;;;;;;;5099075;28;20047;-72
2022/01/25 11:29:49;;;;;;;34.08;18.33;;;;;;;;;;5099028;28;20021;-72
2022/01/25 11:32:20;;;;;;;29.95;16.77;;;;;;;;;;5095405;28;20044;-70
2022/01/25 11:34:47;;;;;;;39.20;18.75;;;;;;;;;;5107178;28;20048;-72
2022/01/25 11:37:14;;;;;;;32.58;17.77;;;;;;;;;;5105567;28;20035;-71
2022/01/25 11:39:44;;;;;;;30.65;17.67;;;;;;;;;;5117477;28;20051;-72
2022/01/25 11:42:13;;;;;;;31.17;17.67;;;;;;;;;;5105063;28;20035;-73
2022/01/25 11:44:48;;;;;;;33.42;18.73;;;;;;;;;;5106345;28;20039;-73
2022/01/25 11:47:17;;;;;;;34.97;19.23;;;;;;;;;;5099352;28;20048;-72
2022/01/25 11:49:54;;;;;;;36.17;18.85;;;;;;;;;;5108854;28;20046;-73
2022/01/25 11:52:22;;;;;;;37.22;19.17;;;;;;;;;;5075692;28;20032;-73
2022/01/25 11:54:52;;;;;;;34.83;17.45;;;;;;;;;;5107117;28;20042;-73
2022/01/25 11:57:25;;;;;;;37.45;19.63;;;;;;;;;;5094221;28;20032;-73
2022/01/25 11:59:58;;;;;;;32.85;18.23;;;;;;;;;;5112695;28;20047;-72
2022/01/25 12:02:40;;;;;;;35.95;19.17;;;;;;;;;;5126220;27;20374;-72
2022/01/25 12:05:09;;;;;;;38.28;19.88;;;;;;;;;;5129752;27;20046;-73
2022/01/25 12:07:40;;;;;;;37.00;20.48;;;;;;;;;;5129152;27;20027;-72
2022/01/25 12:10:41;;;;;;;43.03;20.45;;;;;;;;;;5098784;28;20032;-73
2022/01/25 12:13:27;;;;;;;38.77;20.37;;;;;;;;;;5027876;28;20472;-73
2022/01/25 12:16:26;;;;;;;34.63;18.80;;;;;;;;;;5090275;28;20039;-73
2022/01/25 12:18:58;;;;;;;34.55;19.10;;;;;;;;;;5097835;28;20481;-73
2022/01/25 12:21:46;;;;;;;38.30;19.85;;;;;;;;;;5110214;28;20626;-73
2022/01/25 12:24:22;;;;;;;34.28;19.15;;;;;;;;;;5110187;28;20402;-72
2022/01/25 12:27:04;;;;;;;41.40;20.42;;;;;;;;;;5097984;28;20048;-73
2022/01/25 12:29:33;;;;;;;37.28;19.33;;;;;;;;;;5089439;28;20048;-73
2022/01/25 12:32:17;;;;;;;40.40;20.17;;;;;;;;;;5106160;28;20050;-72
2022/01/25 12:35:05;;;;;;;43.92;22.20;;;;;;;;;;5110702;28;20050;-72
2022/01/25 12:37:42;;;;;;;40.55;20.92;;;;;;;;;;5109679;28;20058;-72
2022/01/25 12:40:28;;;;;;;47.88;21.88;;;;;;;;;;5102938;28;20021;-72
2022/01/25 12:43:08;;;;;;;47.75;21.92;;;;;;;;;;5083999;28;20107;-72
2022/01/25 12:45:54;;;;;;;41.03;22.02;;;;;;;;;;5090191;28;20068;-72
2022/01/25 12:48:25;;;;;;;46.88;21.65;;;;;;;;;;5089961;28;20048;-73
2022/01/25 12:50:52;;;;;;;;;;;;;;;;;;5110075;28;20512;-72
2022/01/25 12:53:22;;;;;;;49.15;22.90;;;;;;;;;;5110241;28;19923;-72
2022/01/25 12:55:51;;;;;;;43.25;22.52;;;;;;;;;;5108422;28;20039;-72
2022/01/25 12:58:20;;;;;;;45.55;22.20;;;;;;;;;;5076972;28;20047;-72
2022/01/25 13:00:49;;;;;;;47.80;22.45;;;;;;;;;;5070849;28;20391;-71
2022/01/25 13:03:26;;;;;;;49.35;22.25;;;;;;;;;;5092354;28;20039;-71
2022/01/25 13:06:04;;;;;;;44.90;21.98;;;;;;;;;;5107893;28;20046;-71
2022/01/25 13:08:57;;;;;;;45.05;22.50;;;;;;;;;;5108330;28;20043;-73
2022/01/25 13:11:28;;;;;;;45.42;22.15;;;;;;;;;;5094663;28;20044;-73
2022/01/25 13:14:02;;;;;;;41.35;20.80;;;;;;;;;;5087775;28;20039;-73
2022/01/25 13:16:49;;;;;;;55.15;24.27;;;;;;;;;;5090811;28;20032;-72
2022/01/25 13:19:43;;;;;;;45.67;21.77;;;;;;;;;;5110393;28;20384;-73
2022/01/25 13:22:33;;;;;;;46.00;21.67;;;;;;;;;;5108947;28;20039;-73
2022/01/25 13:27:54;;;;;;;46.03;22.65;;;;;;;;;;5091613;28;20448;-71
2022/01/25 13:30:39;;;;;;;50.50;23.55;;;;;;;;;;5083709;28;20194;-73
2022/01/25 13:33:06;;;;;;;51.50;23.73;;;;;;;;;;5103371;28;20055;-72
2022/01/25 13:35:36;;;;;;;48.33;22.50;;;;;;;;;;5109924;28;20052;-73
2022/01/25 13:38:08;;;;;;;52.22;24.80;;;;;;;;;;5072659;28;20051;-72
2022/01/25 13:46:42;;;;;;;49.58;24.02;;;;;;;;;;5077476;28;20039;-75
2022/01/25 13:49:12;;;;;;;46.17;22.52;;;;;;;;;;5092614;28;20047;-72
2022/01/25 13:51:49;;;;;;;56.20;24.65;;;;;;;;;;5104401;28;20035;-73
2022/01/25 13:54:18;;;;;;;55.30;24.80;;;;;;;;;;5100236;27;20039;-73
2022/01/25 13:56:45;;;;;;;55.03;25.50;;;;;;;;;;5102299;27;20039;-72
2022/01/25 13:59:12;;;;;;;60.35;25.83;;;;;;;;;;5108941;27;20400;-72
2022/01/25 14:01:40;;;;;;;57.45;24.02;;;;;;;;;;5100209;27;20462;-71
2022/01/25 14:04:26;;;;;;;55.33;25.02;;;;;;;;;;5108562;27;20046;-72
2022/01/25 14:06:57;;;;;;;54.17;24.20;;;;;;;;;;5092492;28;20475;-72
2022/01/25 14:09:31;;;;;;;52.30;24.38;;;;;;;;;;5099458;28;20484;-70
2022/01/25 14:25:47;;;;;;;64.80;25.85;;;;;;;;;;5109536;27;20054;-73
2022/01/25 14:28:17;;;;;;;67.28;26.02;;;;;;;;;;5106712;28;20050;-72
2022/01/25 14:30:51;;;;;;;61.60;26.08;;;;;;;;;;5091298;28;20384;-70
2022/01/25 14:38:32;;;;;;;66.47;26.55;;;;;;;;;;5466555;22;20056;-69
2022/01/25 14:41:04;;;;;;;64.55;24.67;;;;;;;;;;5050991;28;20045;-69
2022/01/25 14:43:34;;;;;;;69.80;26.92;;;;;;;;;;5051634;28;20040;-71
2022/01/25 14:46:06;;;;;;;64.45;24.55;;;;;;;;;;5069495;28;20072;-72
2022/01/25 14:48:36;;;;;;;68.85;26.25;;;;;;;;;;5061237;28;20474;-71
2022/01/25 14:51:11;;;;;;;67.47;25.33;;;;;;;;;;5085883;28;20040;-70
2022/01/25 14:53:38;;;;;;;77.28;25.98;;;;;;;;;;5064986;28;20055;-70
2022/01/25 14:56:06;;;;;;;66.95;24.88;;;;;;;;;;5061038;28;20044;-74
2022/01/25 15:01:19;;;;;;;67.53;25.00;;;;;;;;;;5085980;28;20032;-76
2022/01/25 15:03:45;;;;;;;77.05;26.52;;;;;;;;;;5086760;28;20036;-76
2022/01/25 15:06:14;;;;;;;72.60;25.48;;;;;;;;;;5066158;28;20055;-77
2022/01/25 15:08:55;;;;;;;78.88;25.70;;;;;;;;;;5086271;28;20028;-76
2022/01/25 15:11:23;;;;;;;67.47;25.17;;;;;;;;;;5064344;28;20051;-75
2022/01/25 15:13:58;;;;;;;73.32;24.60;;;;;;;;;;5096716;28;20031;-73
2022/01/25 15:16:24;;;;;;;72.97;23.67;;;;;;;;;;5096438;28;20046;-74
2022/01/25 15:18:50;;;;;;;67.50;24.40;;;;;;;;;;5102706;28;20400;-71
2022/01/25 15:21:16;;;;;;;76.15;25.42;;;;;;;;;;5098993;28;20040;-73
2022/01/25 15:23:47;;;;;;;78.55;24.23;;;;;;;;;;5087724;28;20047;-73
2022/01/25 15:26:16;;;;;;;80.95;26.67;;;;;;;;;;5084243;28;20044;-72
2022/01/25 15:28:46;;;;;;;77.20;25.38;;;;;;;;;;5082875;28;20040;-70
2022/01/25 15:31:15;;;;;;;73.43;24.95;;;;;;;;;;5067201;28;20043;-72
2022/01/25 15:33:43;;;;;;;74.32;24.92;;;;;;;;;;5079803;28;20040;-72
2022/01/25 15:36:12;;;;;;;71.70;25.30;;;;;;;;;;5083971;28;20485;-72
2022/01/25 15:38:39;;;;;;;81.95;26.70;;;;;;;;;;5085213;28;20508;-78
2022/01/25 15:41:09;;;;;;;79.03;26.15;;;;;;;;;;5060953;28;20596;-73
2022/01/25 15:43:58;;;;;;;67.90;24.30;;;;;;;;;;5070437;28;20055;-73
2022/01/25 15:46:32;;;;;;;79.93;27.02;;;;;;;;;;5057072;28;20521;-75
2022/01/25 15:49:02;;;;;;;74.75;25.77;;;;;;;;;;5067527;28;20028;-76
2022/01/25 15:51:28;;;;;;;75.68;25.58;;;;;;;;;;5066715;28;20554;-77
2022/01/25 15:53:55;;;;;;;79.63;24.75;;;;;;;;;;5062661;28;20057;-76
2022/01/25 15:56:22;;;;;;;76.22;26.02;;;;;;;;;;5062897;28;20052;-78
2022/01/25 15:58:48;;;;;;;79.78;26.48;;;;;;;;;;5068718;28;20040;-78
2022/01/25 16:01:14;;;;;;;89.60;27.92;;;;;;;;;;5075200;28;20548;-79
2022/01/25 16:03:41;;;;;;;84.72;27.35;;;;;;;;;;5068613;28;20036;-77
2022/01/25 16:06:08;;;;;;;84.75;27.23;;;;;;;;;;5071535;28;20036;-78
2022/01/25 16:08:35;;;;;;;84.53;27.35;;;;;;;;;;5068418;28;20048;-80
2022/01/25 16:11:04;;;;;;;79.30;26.85;;;;;;;;;;5061852;28;20044;-77
2022/01/25 16:13:30;;;;;;;81.38;27.05;;;;;;;;;;5063326;28;20032;-77
2022/01/25 16:15:57;;;;;;;86.00;27.67;;;;;;;;;;5060177;28;20045;-75
2022/01/25 16:18:23;;;;;;;92.03;28.55;;;;;;;;;;5050693;28;20401;-77
2022/01/25 16:20:49;;;;;;;83.18;27.23;;;;;;;;;;5067177;28;20493;-74
2022/01/25 16:23:15;;;;;;;90.50;31.55;;;;;;;;;;5056749;28;20525;-77
2022/01/25 16:25:41;;;;;;;78.85;28.13;;;;;;;;;;5045667;28;20041;-77
2022/01/25 16:28:09;;;;;;;78.18;25.50;;;;;;;;;;5038567;28;20538;-73
2022/01/25 16:30:36;;;;;;;67.32;25.58;;;;;;;;;;5063359;28;20043;-72
2022/01/25 16:33:03;;;;;;;52.50;22.95;;;;;;;;;;5059854;28;20040;-70
2022/01/25 16:35:29;;;;;;;53.58;22.73;;;;;;;;;;5032972;28;20068;-72
2022/01/25 16:37:55;;;;;;;62.10;25.20;;;;;;;;;;5045857;28;20041;-73
2022/01/25 16:40:21;;;;;;;76.43;27.65;;;;;;;;;;5051523;28;20059;-73
2022/01/25 16:42:47;;;;;;;66.82;26.10;;;;;;;;;;5027767;28;20045;-75